FCC05 PANC-PAGK
Flight info
| Callsign | FCC05 |
|---|---|
| Flight time | 1h 8m |
| Altitude | 11000 |
| Route | UREKA |
| Aircraft | C208/L-SDFGR/C |
Departure
| Time | 2026-05-08 05:02 |
|---|---|
| Airport | Ted Stevens Anchorage International Airport (PANC) |
Arrival
| Time | 2026-05-08 06:10 |
|---|---|
| Airport | Gulkana Airport (PAGK) |
| Time | Latitude | Longitude | Altitude | Speed | Heading |
|---|---|---|---|---|---|
| 2026-05-08 04:50 | 61.16457 | -149.97696 | 0 ft | 0 kts | 240° |
| 2026-05-08 04:57 | 61.16456 | -149.97698 | 116 ft | 0 kts | 246° |
| 2026-05-08 04:58 | 61.16456 | -149.97705 | 116 ft | 3 kts | 288° |
| 2026-05-08 04:58 | 61.16471 | -149.97651 | 116 ft | 7 kts | 82° |
| 2026-05-08 04:58 | 61.16530 | -149.97616 | 112 ft | 12 kts | 359° |
| 2026-05-08 04:59 | 61.16559 | -149.97550 | 110 ft | 9 kts | 69° |
| 2026-05-08 04:59 | 61.16611 | -149.97479 | 109 ft | 9 kts | 28° |
| 2026-05-08 04:59 | 61.16661 | -149.97422 | 107 ft | 9 kts | 27° |
| 2026-05-08 04:59 | 61.16722 | -149.97351 | 107 ft | 11 kts | 28° |
| 2026-05-08 05:00 | 61.16762 | -149.97332 | 109 ft | 4 kts | 357° |
| 2026-05-08 05:00 | 61.16787 | -149.97350 | 111 ft | 3 kts | 305° |
| 2026-05-08 05:00 | 61.16791 | -149.97434 | 110 ft | 6 kts | 253° |
| 2026-05-08 05:00 | 61.16790 | -149.97445 | 109 ft | 0 kts | 266° |
| 2026-05-08 05:01 | 61.16790 | -149.97711 | 109 ft | 51 kts | 270° |
| 2026-05-08 05:01 | 61.16786 | -149.98803 | 176 ft | 92 kts | 270° |
| 2026-05-08 05:01 | 61.16784 | -150.00223 | 372 ft | 104 kts | 271° |
| 2026-05-08 05:02 | 61.16795 | -150.01767 | 580 ft | 111 kts | 272° |
| 2026-05-08 05:02 | 61.16797 | -150.03397 | 770 ft | 116 kts | 268° |
| 2026-05-08 05:02 | 61.16851 | -150.05087 | 920 ft | 118 kts | 277° |
| 2026-05-08 05:02 | 61.17220 | -150.06534 | 1130 ft | 117 kts | 317° |
| 2026-05-08 05:03 | 61.17996 | -150.06979 | 1236 ft | 122 kts | 6° |
| 2026-05-08 05:03 | 61.18734 | -150.06257 | 1421 ft | 119 kts | 44° |
| 2026-05-08 05:03 | 61.19101 | -150.04861 | 1646 ft | 111 kts | 81° |
| 2026-05-08 05:03 | 61.19029 | -150.03307 | 1827 ft | 107 kts | 115° |
| 2026-05-08 05:04 | 61.18735 | -150.01972 | 2071 ft | 101 kts | 117° |
| 2026-05-08 05:04 | 61.18452 | -150.00620 | 2297 ft | 103 kts | 121° |
| 2026-05-08 05:04 | 61.18108 | -149.99309 | 2529 ft | 104 kts | 120° |
| 2026-05-08 05:04 | 61.17785 | -149.97946 | 2758 ft | 106 kts | 120° |
| 2026-05-08 05:05 | 61.17472 | -149.96550 | 2969 ft | 108 kts | 119° |
| 2026-05-08 05:05 | 61.17161 | -149.95125 | 3176 ft | 109 kts | 118° |
| 2026-05-08 05:05 | 61.16872 | -149.93665 | 3373 ft | 111 kts | 106° |
| 2026-05-08 05:05 | 61.17172 | -149.92168 | 3574 ft | 127 kts | 44° |
| 2026-05-08 05:06 | 61.17885 | -149.90998 | 3791 ft | 133 kts | 50° |
| 2026-05-08 05:06 | 61.18443 | -149.89471 | 4008 ft | 134 kts | 65° |
| 2026-05-08 05:06 | 61.18731 | -149.88340 | 4146 ft | 134 kts | 71° |
| 2026-05-08 05:06 | 61.19102 | -149.86553 | 4353 ft | 135 kts | 75° |
| 2026-05-08 05:07 | 61.19451 | -149.84734 | 4566 ft | 137 kts | 75° |
| 2026-05-08 05:07 | 61.19791 | -149.82882 | 4779 ft | 137 kts | 76° |
| 2026-05-08 05:07 | 61.20372 | -149.80540 | 5054 ft | 139 kts | 66° |
| 2026-05-08 05:07 | 61.20713 | -149.79384 | 5186 ft | 139 kts | 64° |
| 2026-05-08 05:08 | 61.21231 | -149.77685 | 5392 ft | 139 kts | 64° |
| 2026-05-08 05:08 | 61.21760 | -149.76003 | 5607 ft | 139 kts | 65° |
| 2026-05-08 05:08 | 61.22227 | -149.74255 | 5804 ft | 136 kts | 74° |
| 2026-05-08 05:08 | 61.22572 | -149.72437 | 6014 ft | 135 kts | 77° |
| 2026-05-08 05:09 | 61.22993 | -149.70002 | 6305 ft | 135 kts | 79° |
| 2026-05-08 05:09 | 61.23204 | -149.68757 | 6449 ft | 135 kts | 78° |
| 2026-05-08 05:09 | 61.23551 | -149.66960 | 6654 ft | 136 kts | 76° |
| 2026-05-08 05:09 | 61.23934 | -149.65168 | 6854 ft | 137 kts | 71° |
| 2026-05-08 05:10 | 61.24372 | -149.63413 | 7047 ft | 137 kts | 70° |
| 2026-05-08 05:10 | 61.25287 | -149.59954 | 7433 ft | 136 kts | 67° |
| 2026-05-08 05:10 | 61.25776 | -149.58264 | 7653 ft | 136 kts | 66° |
| 2026-05-08 05:11 | 61.26270 | -149.56588 | 7863 ft | 136 kts | 66° |
| 2026-05-08 05:11 | 61.26742 | -149.54900 | 8073 ft | 136 kts | 68° |
| 2026-05-08 05:11 | 61.27207 | -149.53198 | 8282 ft | 135 kts | 68° |
| 2026-05-08 05:11 | 61.27670 | -149.51487 | 8496 ft | 136 kts | 68° |
| 2026-05-08 05:12 | 61.28125 | -149.49795 | 8632 ft | 133 kts | 69° |
| 2026-05-08 05:12 | 61.28580 | -149.48111 | 8854 ft | 134 kts | 68° |
| 2026-05-08 05:12 | 61.29036 | -149.46408 | 9083 ft | 135 kts | 68° |
| 2026-05-08 05:12 | 61.29494 | -149.44695 | 9315 ft | 136 kts | 68° |
| 2026-05-08 05:13 | 61.29959 | -149.42966 | 9548 ft | 138 kts | 69° |
| 2026-05-08 05:13 | 61.30428 | -149.41212 | 9824 ft | 139 kts | 69° |
| 2026-05-08 05:13 | 61.30899 | -149.39444 | 10042 ft | 141 kts | 69° |
| 2026-05-08 05:13 | 61.31374 | -149.37637 | 10253 ft | 143 kts | 69° |
| 2026-05-08 05:14 | 61.31794 | -149.35789 | 10435 ft | 141 kts | 74° |
| 2026-05-08 05:14 | 61.32165 | -149.33902 | 10624 ft | 140 kts | 76° |
| 2026-05-08 05:14 | 61.32516 | -149.32056 | 10814 ft | 140 kts | 76° |
| 2026-05-08 05:14 | 61.32870 | -149.30111 | 10930 ft | 145 kts | 78° |
| 2026-05-08 05:15 | 61.33180 | -149.28099 | 10974 ft | 150 kts | 80° |
| 2026-05-08 05:15 | 61.33488 | -149.25968 | 11008 ft | 157 kts | 80° |
| 2026-05-08 05:15 | 61.33797 | -149.23759 | 11013 ft | 161 kts | 81° |
| 2026-05-08 05:15 | 61.34159 | -149.21513 | 11008 ft | 165 kts | 75° |
| 2026-05-08 05:16 | 61.34646 | -149.19339 | 11000 ft | 167 kts | 68° |
| 2026-05-08 05:16 | 61.35224 | -149.17226 | 11002 ft | 168 kts | 65° |
| 2026-05-08 05:16 | 61.35845 | -149.15150 | 11012 ft | 169 kts | 63° |
| 2026-05-08 05:16 | 61.36480 | -149.13078 | 11003 ft | 169 kts | 63° |
| 2026-05-08 05:17 | 61.37119 | -149.11022 | 11016 ft | 170 kts | 63° |
| 2026-05-08 05:17 | 61.37767 | -149.08957 | 11007 ft | 170 kts | 63° |
| 2026-05-08 05:17 | 61.38406 | -149.06903 | 11002 ft | 169 kts | 63° |
| 2026-05-08 05:17 | 61.39016 | -149.04802 | 10988 ft | 168 kts | 67° |
| 2026-05-08 05:18 | 61.39571 | -149.02665 | 11003 ft | 170 kts | 68° |
| 2026-05-08 05:18 | 61.40117 | -149.00453 | 11010 ft | 172 kts | 69° |
| 2026-05-08 05:18 | 61.40657 | -148.98246 | 11003 ft | 174 kts | 69° |
| 2026-05-08 05:18 | 61.41208 | -148.95973 | 10980 ft | 173 kts | 70° |
| 2026-05-08 05:19 | 61.41747 | -148.93757 | 10967 ft | 170 kts | 70° |
| 2026-05-08 05:19 | 61.42278 | -148.91590 | 10986 ft | 170 kts | 69° |
| 2026-05-08 05:19 | 61.42820 | -148.89370 | 10978 ft | 169 kts | 70° |
| 2026-05-08 05:19 | 61.43354 | -148.87191 | 10982 ft | 168 kts | 70° |
| 2026-05-08 05:20 | 61.43875 | -148.85048 | 10977 ft | 167 kts | 70° |
| 2026-05-08 05:20 | 61.44395 | -148.82874 | 10993 ft | 168 kts | 70° |
| 2026-05-08 05:20 | 61.44926 | -148.80680 | 10997 ft | 170 kts | 70° |
| 2026-05-08 05:20 | 61.45458 | -148.78472 | 10997 ft | 170 kts | 70° |
| 2026-05-08 05:21 | 61.45992 | -148.76255 | 10997 ft | 171 kts | 70° |
| 2026-05-08 05:21 | 61.46526 | -148.74029 | 10997 ft | 171 kts | 70° |
| 2026-05-08 05:21 | 61.47060 | -148.71802 | 10995 ft | 171 kts | 70° |
| 2026-05-08 05:21 | 61.47592 | -148.69574 | 10997 ft | 172 kts | 70° |
| 2026-05-08 05:22 | 61.48124 | -148.67333 | 11011 ft | 173 kts | 70° |
| 2026-05-08 05:22 | 61.48661 | -148.65060 | 11014 ft | 175 kts | 70° |
| 2026-05-08 05:22 | 61.49197 | -148.62774 | 11021 ft | 176 kts | 70° |
| 2026-05-08 05:22 | 61.49738 | -148.60479 | 10987 ft | 174 kts | 70° |
| 2026-05-08 05:23 | 61.50275 | -148.58221 | 10983 ft | 172 kts | 70° |
| 2026-05-08 05:23 | 61.50803 | -148.55985 | 10993 ft | 171 kts | 70° |
| 2026-05-08 05:23 | 61.51333 | -148.53756 | 11005 ft | 171 kts | 70° |
| 2026-05-08 05:23 | 61.51857 | -148.51525 | 11006 ft | 171 kts | 70° |
| 2026-05-08 05:24 | 61.52378 | -148.49303 | 11013 ft | 170 kts | 70° |
| 2026-05-08 05:24 | 61.52900 | -148.47062 | 11032 ft | 172 kts | 70° |
| 2026-05-08 05:24 | 61.53422 | -148.44798 | 11031 ft | 174 kts | 70° |
| 2026-05-08 05:24 | 61.53944 | -148.42533 | 11030 ft | 175 kts | 70° |
| 2026-05-08 05:25 | 61.54475 | -148.40216 | 11018 ft | 174 kts | 70° |
| 2026-05-08 05:25 | 61.54991 | -148.37970 | 11016 ft | 172 kts | 70° |
| 2026-05-08 05:25 | 61.55506 | -148.35726 | 11014 ft | 169 kts | 70° |
| 2026-05-08 05:25 | 61.56018 | -148.33505 | 11049 ft | 170 kts | 70° |
| 2026-05-08 05:26 | 61.56531 | -148.31275 | 11023 ft | 169 kts | 70° |
| 2026-05-08 05:26 | 61.57039 | -148.29052 | 11034 ft | 169 kts | 70° |
| 2026-05-08 05:26 | 61.57545 | -148.26827 | 11056 ft | 170 kts | 70° |
| 2026-05-08 05:26 | 61.58058 | -148.24565 | 11057 ft | 172 kts | 70° |
| 2026-05-08 05:27 | 61.58572 | -148.22290 | 11056 ft | 174 kts | 70° |
| 2026-05-08 05:27 | 61.59091 | -148.19978 | 11050 ft | 175 kts | 70° |
| 2026-05-08 05:27 | 61.59609 | -148.17665 | 11039 ft | 175 kts | 70° |
| 2026-05-08 05:27 | 61.60126 | -148.15353 | 11046 ft | 175 kts | 70° |
| 2026-05-08 05:28 | 61.60643 | -148.13033 | 11047 ft | 176 kts | 70° |
| 2026-05-08 05:28 | 61.61159 | -148.10705 | 11040 ft | 176 kts | 70° |
| 2026-05-08 05:28 | 61.61677 | -148.08387 | 11043 ft | 175 kts | 70° |
| 2026-05-08 05:28 | 61.62184 | -148.06089 | 11034 ft | 173 kts | 70° |
| 2026-05-08 05:29 | 61.62690 | -148.03794 | 11046 ft | 173 kts | 70° |
| 2026-05-08 05:29 | 61.63186 | -148.01511 | 11038 ft | 172 kts | 70° |
| 2026-05-08 05:29 | 61.63680 | -147.99224 | 11031 ft | 170 kts | 70° |
| 2026-05-08 05:29 | 61.64171 | -147.96967 | 11048 ft | 170 kts | 70° |
| 2026-05-08 05:30 | 61.64663 | -147.94705 | 11065 ft | 172 kts | 70° |
| 2026-05-08 05:30 | 61.65157 | -147.92395 | 11074 ft | 174 kts | 70° |
| 2026-05-08 05:30 | 61.65650 | -147.90084 | 11067 ft | 176 kts | 70° |
| 2026-05-08 05:30 | 61.66278 | -147.87900 | 11029 ft | 177 kts | 45° |
| 2026-05-08 05:31 | 61.67220 | -147.86238 | 11047 ft | 177 kts | 41° |
| 2026-05-08 05:31 | 61.68196 | -147.84625 | 11044 ft | 176 kts | 40° |
| 2026-05-08 05:31 | 61.69195 | -147.83038 | 11049 ft | 176 kts | 39° |
| 2026-05-08 05:31 | 61.70179 | -147.81495 | 11057 ft | 176 kts | 38° |
| 2026-05-08 05:32 | 61.71165 | -147.79965 | 11057 ft | 177 kts | 38° |
| 2026-05-08 05:32 | 61.72160 | -147.78433 | 11050 ft | 177 kts | 38° |
| 2026-05-08 05:32 | 61.73154 | -147.76900 | 11051 ft | 177 kts | 38° |
| 2026-05-08 05:32 | 61.74143 | -147.75371 | 11048 ft | 176 kts | 38° |
| 2026-05-08 05:33 | 61.75138 | -147.73834 | 11044 ft | 176 kts | 38° |
| 2026-05-08 05:33 | 61.76133 | -147.72291 | 11047 ft | 175 kts | 38° |
| 2026-05-08 05:33 | 61.77120 | -147.70755 | 11047 ft | 176 kts | 38° |
| 2026-05-08 05:33 | 61.78101 | -147.69219 | 11049 ft | 176 kts | 38° |
| 2026-05-08 05:34 | 61.79087 | -147.67670 | 11046 ft | 177 kts | 38° |
| 2026-05-08 05:34 | 61.80062 | -147.66137 | 11049 ft | 177 kts | 38° |
| 2026-05-08 05:34 | 61.81049 | -147.64579 | 11044 ft | 177 kts | 38° |
| 2026-05-08 05:34 | 61.82036 | -147.63014 | 11037 ft | 177 kts | 38° |
| 2026-05-08 05:35 | 61.83019 | -147.61452 | 11035 ft | 176 kts | 38° |
| 2026-05-08 05:35 | 61.83991 | -147.59907 | 11034 ft | 175 kts | 38° |
| 2026-05-08 05:35 | 61.84963 | -147.58359 | 11038 ft | 174 kts | 38° |
| 2026-05-08 05:35 | 61.85932 | -147.56814 | 11040 ft | 175 kts | 38° |
| 2026-05-08 05:36 | 61.86902 | -147.55268 | 11038 ft | 175 kts | 38° |
| 2026-05-08 05:36 | 61.87871 | -147.53717 | 11039 ft | 175 kts | 38° |
| 2026-05-08 05:36 | 61.88844 | -147.52164 | 11041 ft | 175 kts | 38° |
| 2026-05-08 05:36 | 61.89814 | -147.50616 | 11043 ft | 175 kts | 38° |
| 2026-05-08 05:37 | 61.90789 | -147.49057 | 11038 ft | 176 kts | 38° |
| 2026-05-08 05:37 | 61.91766 | -147.47493 | 11043 ft | 176 kts | 38° |
| 2026-05-08 05:37 | 61.92731 | -147.45888 | 11030 ft | 176 kts | 46° |
| 2026-05-08 05:37 | 61.93355 | -147.43749 | 11026 ft | 173 kts | 65° |
| 2026-05-08 05:38 | 61.93901 | -147.41449 | 11033 ft | 172 kts | 66° |
| 2026-05-08 05:38 | 61.94414 | -147.39160 | 11031 ft | 171 kts | 67° |
| 2026-05-08 05:38 | 61.94907 | -147.36896 | 11037 ft | 171 kts | 68° |
| 2026-05-08 05:38 | 61.95401 | -147.34594 | 11037 ft | 171 kts | 68° |
| 2026-05-08 05:39 | 61.95864 | -147.32258 | 11039 ft | 171 kts | 71° |
| 2026-05-08 05:39 | 61.96296 | -147.29895 | 11033 ft | 171 kts | 72° |
| 2026-05-08 05:39 | 61.96701 | -147.27522 | 11032 ft | 171 kts | 73° |
| 2026-05-08 05:39 | 61.97089 | -147.25139 | 11032 ft | 170 kts | 74° |
| 2026-05-08 05:40 | 61.97471 | -147.22750 | 11039 ft | 171 kts | 74° |
| 2026-05-08 05:40 | 61.97848 | -147.20360 | 11035 ft | 171 kts | 74° |
| 2026-05-08 05:40 | 61.98209 | -147.17959 | 11038 ft | 170 kts | 76° |
| 2026-05-08 05:40 | 61.98555 | -147.15553 | 11037 ft | 170 kts | 76° |
| 2026-05-08 05:41 | 61.98895 | -147.13139 | 11039 ft | 170 kts | 76° |
| 2026-05-08 05:41 | 61.99229 | -147.10722 | 11036 ft | 170 kts | 76° |
| 2026-05-08 05:41 | 61.99560 | -147.08314 | 11037 ft | 170 kts | 76° |
| 2026-05-08 05:41 | 61.99891 | -147.05897 | 11039 ft | 169 kts | 76° |
| 2026-05-08 05:42 | 62.00219 | -147.03487 | 11036 ft | 169 kts | 76° |
| 2026-05-08 05:42 | 62.00544 | -147.01084 | 11037 ft | 169 kts | 76° |
| 2026-05-08 05:42 | 62.00870 | -146.98674 | 11036 ft | 169 kts | 76° |
| 2026-05-08 05:42 | 62.01194 | -146.96269 | 11035 ft | 169 kts | 76° |
| 2026-05-08 05:43 | 62.01519 | -146.93876 | 11034 ft | 169 kts | 76° |
| 2026-05-08 05:43 | 62.01845 | -146.91482 | 11034 ft | 168 kts | 76° |
| 2026-05-08 05:43 | 62.02171 | -146.89078 | 11034 ft | 168 kts | 77° |
| 2026-05-08 05:43 | 62.02494 | -146.86687 | 11036 ft | 168 kts | 76° |
| 2026-05-08 05:44 | 62.02826 | -146.84260 | 11034 ft | 168 kts | 76° |
| 2026-05-08 05:44 | 62.03144 | -146.81863 | 11032 ft | 168 kts | 77° |
| 2026-05-08 05:44 | 62.03445 | -146.79450 | 11033 ft | 168 kts | 78° |
| 2026-05-08 05:44 | 62.03737 | -146.77040 | 11031 ft | 168 kts | 78° |
| 2026-05-08 05:45 | 62.04028 | -146.74627 | 11029 ft | 168 kts | 78° |
| 2026-05-08 05:45 | 62.04322 | -146.72225 | 11030 ft | 168 kts | 78° |
| 2026-05-08 05:45 | 62.04615 | -146.69819 | 11032 ft | 168 kts | 78° |
| 2026-05-08 05:45 | 62.04909 | -146.67409 | 11034 ft | 168 kts | 79° |
| 2026-05-08 05:46 | 62.05121 | -146.64972 | 11033 ft | 167 kts | 84° |
| 2026-05-08 05:46 | 62.05288 | -146.62517 | 11034 ft | 167 kts | 85° |
| 2026-05-08 05:46 | 62.05442 | -146.60056 | 11030 ft | 167 kts | 86° |
| 2026-05-08 05:46 | 62.05591 | -146.57601 | 11029 ft | 167 kts | 86° |
| 2026-05-08 05:47 | 62.05737 | -146.55113 | 10870 ft | 171 kts | 86° |
| 2026-05-08 05:47 | 62.05880 | -146.52716 | 10602 ft | 156 kts | 86° |
| 2026-05-08 05:47 | 62.06017 | -146.50480 | 10345 ft | 149 kts | 86° |
| 2026-05-08 05:47 | 62.06123 | -146.48299 | 10097 ft | 146 kts | 88° |
| 2026-05-08 05:48 | 62.06202 | -146.46162 | 9834 ft | 144 kts | 89° |
| 2026-05-08 05:48 | 62.06266 | -146.44032 | 9558 ft | 143 kts | 91° |
| 2026-05-08 05:48 | 62.06301 | -146.42596 | 9374 ft | 143 kts | 91° |
| 2026-05-08 05:48 | 62.06353 | -146.40474 | 9108 ft | 143 kts | 91° |
| 2026-05-08 05:49 | 62.06407 | -146.38352 | 8841 ft | 144 kts | 91° |
| 2026-05-08 05:49 | 62.06497 | -146.36214 | 8573 ft | 145 kts | 89° |
| 2026-05-08 05:49 | 62.06604 | -146.34078 | 8312 ft | 145 kts | 89° |
| 2026-05-08 05:49 | 62.06709 | -146.31941 | 8040 ft | 145 kts | 88° |
| 2026-05-08 05:50 | 62.06873 | -146.29805 | 7778 ft | 146 kts | 84° |
| 2026-05-08 05:50 | 62.07090 | -146.27678 | 7519 ft | 147 kts | 81° |
| 2026-05-08 05:50 | 62.07355 | -146.25542 | 7269 ft | 148 kts | 79° |
| 2026-05-08 05:50 | 62.07637 | -146.23420 | 7005 ft | 148 kts | 79° |
| 2026-05-08 05:51 | 62.07926 | -146.21336 | 6754 ft | 149 kts | 79° |
| 2026-05-08 05:51 | 62.08228 | -146.19196 | 6500 ft | 149 kts | 79° |
| 2026-05-08 05:51 | 62.08532 | -146.17079 | 6237 ft | 149 kts | 79° |
| 2026-05-08 05:51 | 62.08838 | -146.14956 | 5971 ft | 149 kts | 80° |
| 2026-05-08 05:52 | 62.09110 | -146.12836 | 5694 ft | 147 kts | 83° |
| 2026-05-08 05:52 | 62.09313 | -146.10715 | 5427 ft | 145 kts | 87° |
| 2026-05-08 05:52 | 62.09488 | -146.08608 | 5200 ft | 141 kts | 88° |
| 2026-05-08 05:52 | 62.09653 | -146.06618 | 5101 ft | 133 kts | 88° |
| 2026-05-08 05:53 | 62.09813 | -146.04724 | 5055 ft | 127 kts | 88° |
| 2026-05-08 05:53 | 62.09970 | -146.02909 | 5033 ft | 122 kts | 88° |
| 2026-05-08 05:53 | 62.10129 | -146.01105 | 5031 ft | 119 kts | 88° |
| 2026-05-08 05:53 | 62.10278 | -145.99372 | 5023 ft | 118 kts | 89° |
| 2026-05-08 05:54 | 62.10427 | -145.97655 | 5021 ft | 117 kts | 89° |
| 2026-05-08 05:54 | 62.10583 | -145.95953 | 5020 ft | 117 kts | 89° |
| 2026-05-08 05:54 | 62.10744 | -145.94249 | 5020 ft | 117 kts | 89° |
| 2026-05-08 05:54 | 62.10931 | -145.92561 | 5011 ft | 121 kts | 73° |
| 2026-05-08 05:55 | 62.11621 | -145.91496 | 5010 ft | 130 kts | 11° |
| 2026-05-08 05:55 | 62.12529 | -145.91247 | 5015 ft | 137 kts | 359° |
| 2026-05-08 05:55 | 62.13509 | -145.91323 | 5018 ft | 144 kts | 356° |
| 2026-05-08 05:55 | 62.14529 | -145.91432 | 5019 ft | 149 kts | 355° |
| 2026-05-08 05:56 | 62.15557 | -145.91395 | 5015 ft | 152 kts | 8° |
| 2026-05-08 05:56 | 62.16603 | -145.91000 | 5012 ft | 153 kts | 12° |
| 2026-05-08 05:56 | 62.17643 | -145.90496 | 5001 ft | 154 kts | 14° |
| 2026-05-08 05:56 | 62.18683 | -145.89944 | 5002 ft | 154 kts | 15° |
| 2026-05-08 05:57 | 62.19721 | -145.89381 | 5007 ft | 154 kts | 15° |
| 2026-05-08 05:57 | 62.20761 | -145.88808 | 4999 ft | 154 kts | 15° |
| 2026-05-08 05:57 | 62.21774 | -145.88081 | 5004 ft | 153 kts | 29° |
| 2026-05-08 05:57 | 62.22721 | -145.87036 | 5006 ft | 153 kts | 32° |
| 2026-05-08 05:58 | 62.23651 | -145.85913 | 5012 ft | 153 kts | 33° |
| 2026-05-08 05:58 | 62.24572 | -145.84755 | 5012 ft | 154 kts | 34° |
| 2026-05-08 05:58 | 62.25493 | -145.83586 | 5008 ft | 154 kts | 34° |
| 2026-05-08 05:58 | 62.26414 | -145.82410 | 5012 ft | 154 kts | 34° |
| 2026-05-08 05:59 | 62.27334 | -145.81225 | 5006 ft | 154 kts | 36° |
| 2026-05-08 05:59 | 62.28154 | -145.79811 | 5006 ft | 152 kts | 49° |
| 2026-05-08 05:59 | 62.28903 | -145.78208 | 5007 ft | 152 kts | 51° |
| 2026-05-08 05:59 | 62.29628 | -145.76561 | 5010 ft | 152 kts | 52° |
| 2026-05-08 06:00 | 62.30342 | -145.74893 | 5001 ft | 152 kts | 53° |
| 2026-05-08 06:00 | 62.31058 | -145.73219 | 5001 ft | 152 kts | 53° |
| 2026-05-08 06:00 | 62.31772 | -145.71536 | 5006 ft | 152 kts | 53° |
| 2026-05-08 06:00 | 62.32481 | -145.69853 | 5005 ft | 152 kts | 53° |
| 2026-05-08 06:01 | 62.33106 | -145.68042 | 5005 ft | 149 kts | 66° |
| 2026-05-08 06:01 | 62.33600 | -145.66087 | 5007 ft | 148 kts | 71° |
| 2026-05-08 06:01 | 62.34044 | -145.64088 | 5013 ft | 148 kts | 73° |
| 2026-05-08 06:01 | 62.34427 | -145.62048 | 5000 ft | 143 kts | 88° |
| 2026-05-08 06:02 | 62.34178 | -145.60189 | 4909 ft | 130 kts | 136° |
| 2026-05-08 06:02 | 62.33582 | -145.58660 | 4731 ft | 136 kts | 138° |
| 2026-05-08 06:02 | 62.32915 | -145.57228 | 4536 ft | 134 kts | 151° |
| 2026-05-08 06:02 | 62.32126 | -145.56161 | 4345 ft | 134 kts | 155° |
| 2026-05-08 06:03 | 62.31304 | -145.55221 | 4155 ft | 132 kts | 160° |
| 2026-05-08 06:03 | 62.30480 | -145.54533 | 3968 ft | 126 kts | 163° |
| 2026-05-08 06:03 | 62.29650 | -145.53881 | 3778 ft | 124 kts | 162° |
| 2026-05-08 06:03 | 62.28858 | -145.53242 | 3599 ft | 123 kts | 160° |
| 2026-05-08 06:04 | 62.28085 | -145.52521 | 3422 ft | 120 kts | 159° |
| 2026-05-08 06:04 | 62.27351 | -145.51750 | 3287 ft | 112 kts | 156° |
| 2026-05-08 06:04 | 62.26707 | -145.51030 | 3228 ft | 96 kts | 155° |
| 2026-05-08 06:04 | 62.26157 | -145.50411 | 3211 ft | 86 kts | 155° |
| 2026-05-08 06:05 | 62.25642 | -145.49819 | 3211 ft | 81 kts | 155° |
| 2026-05-08 06:05 | 62.25136 | -145.49350 | 3186 ft | 77 kts | 166° |
| 2026-05-08 06:05 | 62.24625 | -145.49110 | 3181 ft | 74 kts | 169° |
| 2026-05-08 06:05 | 62.24111 | -145.48927 | 3198 ft | 73 kts | 171° |
| 2026-05-08 06:06 | 62.23587 | -145.48763 | 3077 ft | 82 kts | 171° |
| 2026-05-08 06:06 | 62.22990 | -145.48599 | 2931 ft | 88 kts | 172° |
| 2026-05-08 06:06 | 62.22382 | -145.48422 | 2785 ft | 91 kts | 172° |
| 2026-05-08 06:06 | 62.21762 | -145.48226 | 2630 ft | 82 kts | 171° |
| 2026-05-08 06:07 | 62.21238 | -145.48087 | 2463 ft | 70 kts | 171° |
| 2026-05-08 06:07 | 62.20764 | -145.47985 | 2309 ft | 68 kts | 171° |
| 2026-05-08 06:07 | 62.20307 | -145.47789 | 2183 ft | 66 kts | 160° |
| 2026-05-08 06:07 | 62.19878 | -145.47388 | 2106 ft | 67 kts | 158° |
| 2026-05-08 06:08 | 62.19436 | -145.47051 | 2024 ft | 68 kts | 162° |
| 2026-05-08 06:08 | 62.18993 | -145.46774 | 1982 ft | 66 kts | 162° |
| 2026-05-08 06:08 | 62.18551 | -145.46510 | 1966 ft | 66 kts | 161° |
| 2026-05-08 06:08 | 62.18089 | -145.46328 | 1896 ft | 68 kts | 172° |
| 2026-05-08 06:09 | 62.17619 | -145.46198 | 1861 ft | 69 kts | 167° |
| 2026-05-08 06:09 | 62.17150 | -145.46000 | 1802 ft | 69 kts | 169° |
| 2026-05-08 06:09 | 62.16682 | -145.45826 | 1726 ft | 66 kts | 170° |
| 2026-05-08 06:09 | 62.16249 | -145.45695 | 1632 ft | 63 kts | 169° |
| 2026-05-08 06:10 | 62.15846 | -145.45554 | 1583 ft | 50 kts | 171° |
| 2026-05-08 06:10 | 62.15686 | -145.45499 | 1579 ft | 1 kts | 170° |
| 2026-05-08 06:10 | 62.15630 | -145.45502 | 1577 ft | 16 kts | 209° |
| 2026-05-08 06:10 | 62.15616 | -145.45639 | 1578 ft | 8 kts | 261° |
| 2026-05-08 06:11 | 62.15604 | -145.45797 | 1578 ft | 10 kts | 259° |
| 2026-05-08 06:11 | 62.15591 | -145.45943 | 1578 ft | 9 kts | 244° |
| 2026-05-08 06:11 | 62.15571 | -145.45974 | 1577 ft | 3 kts | 168° |
| 2026-05-08 06:11 | 62.15568 | -145.45972 | 1577 ft | 0 kts | 169° |